sensor_id;sensor_type;location;lat;lon;timestamp;P1;durP1;ratioP1;P2;durP2;ratioP2
33780;SDS011;20097;50.832;19.100;2023-08-07T00:00:27;2.30;;;2.10;;
33780;SDS011;20097;50.832;19.100;2023-08-07T00:05:33;5.38;;;2.40;;
33780;SDS011;20097;50.832;19.100;2023-08-07T00:10:37;2.25;;;2.03;;
33780;SDS011;20097;50.832;19.100;2023-08-07T00:15:42;3.70;;;2.20;;
33780;SDS011;20097;50.832;19.100;2023-08-07T00:20:48;2.75;;;2.25;;
33780;SDS011;20097;50.832;19.100;2023-08-07T00:25:52;6.10;;;2.42;;
33780;SDS011;20097;50.832;19.100;2023-08-07T00:30:56;7.10;;;2.20;;
33780;SDS011;20097;50.832;19.100;2023-08-07T00:36:03;3.38;;;2.58;;
33780;SDS011;20097;50.832;19.100;2023-08-07T00:41:07;2.50;;;2.00;;
33780;SDS011;20097;50.832;19.100;2023-08-07T00:46:12;2.83;;;2.40;;
33780;SDS011;20097;50.832;19.100;2023-08-07T00:51:19;2.33;;;2.13;;
33780;SDS011;20097;50.832;19.100;2023-08-07T00:56:25;4.65;;;2.45;;
33780;SDS011;20097;50.832;19.100;2023-08-07T01:01:30;3.97;;;2.17;;
33780;SDS011;20097;50.832;19.100;2023-08-07T01:11:44;6.80;;;2.65;;
33780;SDS011;20097;50.832;19.100;2023-08-07T01:16:55;2.72;;;2.53;;
33780;SDS011;20097;50.832;19.100;2023-08-07T01:22:08;4.22;;;2.58;;
33780;SDS011;20097;50.832;19.100;2023-08-07T01:27:17;3.67;;;2.60;;
33780;SDS011;20097;50.832;19.100;2023-08-07T01:32:34;2.85;;;2.47;;
33780;SDS011;20097;50.832;19.100;2023-08-07T01:37:47;2.63;;;2.13;;
33780;SDS011;20097;50.832;19.100;2023-08-07T01:42:53;2.80;;;2.42;;
33780;SDS011;20097;50.832;19.100;2023-08-07T01:53:05;8.05;;;3.03;;
33780;SDS011;20097;50.832;19.100;2023-08-07T01:58:09;6.05;;;2.72;;
33780;SDS011;20097;50.832;19.100;2023-08-07T02:03:14;3.50;;;2.55;;
33780;SDS011;20097;50.832;19.100;2023-08-07T02:08:20;2.90;;;2.30;;
33780;SDS011;20097;50.832;19.100;2023-08-07T02:13:25;4.15;;;2.67;;
33780;SDS011;20097;50.832;19.100;2023-08-07T02:18:29;5.10;;;3.23;;
33780;SDS011;20097;50.832;19.100;2023-08-07T02:23:35;2.85;;;2.53;;
33780;SDS011;20097;50.832;19.100;2023-08-07T02:28:39;4.15;;;2.80;;
33780;SDS011;20097;50.832;19.100;2023-08-07T02:33:43;2.92;;;2.47;;
33780;SDS011;20097;50.832;19.100;2023-08-07T02:38:50;3.05;;;2.70;;
33780;SDS011;20097;50.832;19.100;2023-08-07T02:43:56;2.92;;;2.63;;
33780;SDS011;20097;50.832;19.100;2023-08-07T02:49:01;4.93;;;2.95;;
33780;SDS011;20097;50.832;19.100;2023-08-07T02:54:07;3.55;;;3.13;;
33780;SDS011;20097;50.832;19.100;2023-08-07T02:59:12;6.22;;;3.10;;
33780;SDS011;20097;50.832;19.100;2023-08-07T03:04:16;5.22;;;2.90;;
33780;SDS011;20097;50.832;19.100;2023-08-07T03:09:21;3.50;;;3.20;;
33780;SDS011;20097;50.832;19.100;2023-08-07T03:14:26;2.70;;;2.47;;
33780;SDS011;20097;50.832;19.100;2023-08-07T03:19:30;5.88;;;3.22;;
33780;SDS011;20097;50.832;19.100;2023-08-07T03:24:36;8.83;;;2.70;;
33780;SDS011;20097;50.832;19.100;2023-08-07T03:29:41;4.95;;;3.35;;
33780;SDS011;20097;50.832;19.100;2023-08-07T03:34:48;3.33;;;3.03;;
33780;SDS011;20097;50.832;19.100;2023-08-07T03:39:53;6.18;;;3.45;;
33780;SDS011;20097;50.832;19.100;2023-08-07T03:44:59;4.35;;;3.33;;
33780;SDS011;20097;50.832;19.100;2023-08-07T03:50:04;4.25;;;3.38;;
33780;SDS011;20097;50.832;19.100;2023-08-07T03:55:11;4.65;;;4.10;;
33780;SDS011;20097;50.832;19.100;2023-08-07T04:00:16;6.38;;;3.22;;
33780;SDS011;20097;50.832;19.100;2023-08-07T04:05:23;3.35;;;2.88;;
33780;SDS011;20097;50.832;19.100;2023-08-07T04:10:29;4.10;;;2.90;;
33780;SDS011;20097;50.832;19.100;2023-08-07T04:15:33;2.35;;;2.15;;
33780;SDS011;20097;50.832;19.100;2023-08-07T04:20:38;3.67;;;2.55;;
33780;SDS011;20097;50.832;19.100;2023-08-07T04:25:44;5.67;;;2.27;;
33780;SDS011;20097;50.832;19.100;2023-08-07T04:30:49;5.40;;;2.67;;
33780;SDS011;20097;50.832;19.100;2023-08-07T04:35:55;8.18;;;2.78;;
33780;SDS011;20097;50.832;19.100;2023-08-07T04:46:05;2.47;;;2.25;;
33780;SDS011;20097;50.832;19.100;2023-08-07T04:51:09;5.53;;;2.65;;
33780;SDS011;20097;50.832;19.100;2023-08-07T04:56:15;2.97;;;2.65;;
33780;SDS011;20097;50.832;19.100;2023-08-07T05:01:20;3.13;;;2.63;;
33780;SDS011;20097;50.832;19.100;2023-08-07T05:06:25;4.45;;;2.75;;
33780;SDS011;20097;50.832;19.100;2023-08-07T05:11:30;4.00;;;2.70;;
33780;SDS011;20097;50.832;19.100;2023-08-07T05:16:35;3.05;;;2.60;;
33780;SDS011;20097;50.832;19.100;2023-08-07T05:26:46;5.40;;;3.08;;
33780;SDS011;20097;50.832;19.100;2023-08-07T05:31:50;4.13;;;2.95;;
33780;SDS011;20097;50.832;19.100;2023-08-07T05:42:01;5.45;;;3.03;;
33780;SDS011;20097;50.832;19.100;2023-08-07T05:47:06;4.55;;;2.80;;
33780;SDS011;20097;50.832;19.100;2023-08-07T05:52:11;3.83;;;2.70;;
33780;SDS011;20097;50.832;19.100;2023-08-07T05:57:17;5.57;;;2.53;;
33780;SDS011;20097;50.832;19.100;2023-08-07T06:02:21;2.88;;;2.35;;
33780;SDS011;20097;50.832;19.100;2023-08-07T06:07:26;3.78;;;2.17;;
33780;SDS011;20097;50.832;19.100;2023-08-07T06:12:31;3.80;;;2.22;;
33780;SDS011;20097;50.832;19.100;2023-08-07T06:17:36;3.03;;;2.20;;
33780;SDS011;20097;50.832;19.100;2023-08-07T06:22:41;3.15;;;2.70;;
33780;SDS011;20097;50.832;19.100;2023-08-07T06:27:47;6.38;;;2.97;;
33780;SDS011;20097;50.832;19.100;2023-08-07T06:32:51;4.38;;;3.55;;
33780;SDS011;20097;50.832;19.100;2023-08-07T06:43:02;4.22;;;2.72;;
33780;SDS011;20097;50.832;19.100;2023-08-07T06:48:06;3.08;;;2.78;;
33780;SDS011;20097;50.832;19.100;2023-08-07T06:53:10;3.75;;;2.80;;
33780;SDS011;20097;50.832;19.100;2023-08-07T06:58:16;5.60;;;3.28;;
33780;SDS011;20097;50.832;19.100;2023-08-07T07:03:20;5.45;;;4.45;;
33780;SDS011;20097;50.832;19.100;2023-08-07T07:08:24;3.90;;;3.30;;
33780;SDS011;20097;50.832;19.100;2023-08-07T07:13:30;4.55;;;2.80;;
33780;SDS011;20097;50.832;19.100;2023-08-07T07:18:34;4.82;;;2.15;;
33780;SDS011;20097;50.832;19.100;2023-08-07T07:23:38;3.95;;;1.80;;
33780;SDS011;20097;50.832;19.100;2023-08-07T07:28:44;2.70;;;1.93;;
33780;SDS011;20097;50.832;19.100;2023-08-07T07:33:49;2.28;;;1.63;;
33780;SDS011;20097;50.832;19.100;2023-08-07T07:38:53;5.05;;;1.63;;
33780;SDS011;20097;50.832;19.100;2023-08-07T07:43:59;2.00;;;1.55;;
33780;SDS011;20097;50.832;19.100;2023-08-07T07:49:04;6.07;;;1.58;;
33780;SDS011;20097;50.832;19.100;2023-08-07T07:54:09;1.98;;;1.50;;
33780;SDS011;20097;50.832;19.100;2023-08-07T07:59:17;4.97;;;1.20;;
33780;SDS011;20097;50.832;19.100;2023-08-07T08:04:22;2.65;;;1.15;;
33780;SDS011;20097;50.832;19.100;2023-08-07T08:09:27;2.70;;;1.50;;
33780;SDS011;20097;50.832;19.100;2023-08-07T08:14:33;2.40;;;1.60;;
33780;SDS011;20097;50.832;19.100;2023-08-07T08:19:55;5.32;;;1.50;;
33780;SDS011;20097;50.832;19.100;2023-08-07T08:25:00;6.32;;;1.73;;
33780;SDS011;20097;50.832;19.100;2023-08-07T08:30:09;2.03;;;1.75;;
33780;SDS011;20097;50.832;19.100;2023-08-07T08:35:14;2.42;;;1.92;;
33780;SDS011;20097;50.832;19.100;2023-08-07T08:40:18;3.80;;;2.25;;
33780;SDS011;20097;50.832;19.100;2023-08-07T08:45:25;2.15;;;1.95;;
33780;SDS011;20097;50.832;19.100;2023-08-07T08:50:30;3.70;;;2.03;;
33780;SDS011;20097;50.832;19.100;2023-08-07T08:55:37;2.75;;;1.60;;
33780;SDS011;20097;50.832;19.100;2023-08-07T09:00:46;2.33;;;1.75;;
33780;SDS011;20097;50.832;19.100;2023-08-07T09:05:52;2.25;;;1.58;;
33780;SDS011;20097;50.832;19.100;2023-08-07T09:10:57;3.42;;;2.03;;
33780;SDS011;20097;50.832;19.100;2023-08-07T09:16:03;2.50;;;1.80;;
33780;SDS011;20097;50.832;19.100;2023-08-07T09:21:11;5.35;;;2.28;;
33780;SDS011;20097;50.832;19.100;2023-08-07T09:26:21;2.95;;;2.20;;
33780;SDS011;20097;50.832;19.100;2023-08-07T09:31:28;3.85;;;2.40;;
33780;SDS011;20097;50.832;19.100;2023-08-07T09:36:33;5.30;;;2.58;;
33780;SDS011;20097;50.832;19.100;2023-08-07T09:41:38;4.13;;;2.17;;
33780;SDS011;20097;50.832;19.100;2023-08-07T09:51:48;5.30;;;3.17;;
33780;SDS011;20097;50.832;19.100;2023-08-07T09:56:54;3.67;;;3.10;;
33780;SDS011;20097;50.832;19.100;2023-08-07T10:02:02;5.85;;;3.40;;
33780;SDS011;20097;50.832;19.100;2023-08-07T10:07:08;5.43;;;2.17;;
33780;SDS011;20097;50.832;19.100;2023-08-07T10:12:14;3.80;;;2.60;;
33780;SDS011;20097;50.832;19.100;2023-08-07T10:17:22;3.72;;;2.47;;
33780;SDS011;20097;50.832;19.100;2023-08-07T10:22:27;5.38;;;2.55;;
33780;SDS011;20097;50.832;19.100;2023-08-07T10:27:35;4.85;;;3.10;;
33780;SDS011;20097;50.832;19.100;2023-08-07T10:32:44;4.55;;;2.85;;
33780;SDS011;20097;50.832;19.100;2023-08-07T10:37:51;5.65;;;2.40;;
33780;SDS011;20097;50.832;19.100;2023-08-07T10:43:17;3.83;;;2.50;;
33780;SDS011;20097;50.832;19.100;2023-08-07T10:48:23;3.53;;;2.35;;
33780;SDS011;20097;50.832;19.100;2023-08-07T10:53:30;4.78;;;2.95;;
33780;SDS011;20097;50.832;19.100;2023-08-07T10:58:40;4.88;;;2.30;;
33780;SDS011;20097;50.832;19.100;2023-08-07T11:03:46;3.63;;;1.98;;
33780;SDS011;20097;50.832;19.100;2023-08-07T11:08:54;3.15;;;2.38;;
33780;SDS011;20097;50.832;19.100;2023-08-07T11:13:58;6.15;;;2.97;;
33780;SDS011;20097;50.832;19.100;2023-08-07T11:19:04;4.80;;;2.33;;
33780;SDS011;20097;50.832;19.100;2023-08-07T11:24:11;4.28;;;2.08;;
33780;SDS011;20097;50.832;19.100;2023-08-07T11:29:17;3.55;;;2.53;;
33780;SDS011;20097;50.832;19.100;2023-08-07T11:39:28;4.05;;;2.30;;
33780;SDS011;20097;50.832;19.100;2023-08-07T11:44:33;3.60;;;2.40;;
33780;SDS011;20097;50.832;19.100;2023-08-07T11:49:40;3.38;;;2.22;;
33780;SDS011;20097;50.832;19.100;2023-08-07T11:54:46;2.35;;;2.15;;
33780;SDS011;20097;50.832;19.100;2023-08-07T11:59:52;3.38;;;2.20;;
33780;SDS011;20097;50.832;19.100;2023-08-07T12:05:00;2.50;;;2.13;;
33780;SDS011;20097;50.832;19.100;2023-08-07T12:10:06;5.20;;;2.25;;
33780;SDS011;20097;50.832;19.100;2023-08-07T12:15:12;3.92;;;2.80;;
33780;SDS011;20097;50.832;19.100;2023-08-07T12:20:17;3.63;;;2.17;;
33780;SDS011;20097;50.832;19.100;2023-08-07T12:25:22;3.88;;;2.20;;
33780;SDS011;20097;50.832;19.100;2023-08-07T12:30:26;9.63;;;2.22;;
33780;SDS011;20097;50.832;19.100;2023-08-07T12:35:33;4.75;;;2.35;;
33780;SDS011;20097;50.832;19.100;2023-08-07T12:40:38;4.85;;;2.20;;
33780;SDS011;20097;50.832;19.100;2023-08-07T12:45:45;2.35;;;2.15;;
33780;SDS011;20097;50.832;19.100;2023-08-07T12:50:54;3.22;;;2.28;;
33780;SDS011;20097;50.832;19.100;2023-08-07T12:55:59;3.38;;;2.53;;
33780;SDS011;20097;50.832;19.100;2023-08-07T13:01:05;3.08;;;2.20;;
33780;SDS011;20097;50.832;19.100;2023-08-07T13:06:10;3.38;;;2.00;;
33780;SDS011;20097;50.832;19.100;2023-08-07T13:11:16;3.35;;;2.25;;
33780;SDS011;20097;50.832;19.100;2023-08-07T13:16:21;6.13;;;2.33;;
33780;SDS011;20097;50.832;19.100;2023-08-07T13:31:34;2.70;;;1.98;;
33780;SDS011;20097;50.832;19.100;2023-08-07T13:36:40;3.78;;;2.50;;
33780;SDS011;20097;50.832;19.100;2023-08-07T13:41:45;3.50;;;2.67;;
33780;SDS011;20097;50.832;19.100;2023-08-07T13:46:49;4.20;;;2.30;;
33780;SDS011;20097;50.832;19.100;2023-08-07T13:51:55;2.45;;;1.83;;
33780;SDS011;20097;50.832;19.100;2023-08-07T13:57:00;3.95;;;1.98;;
33780;SDS011;20097;50.832;19.100;2023-08-07T14:02:05;2.97;;;2.10;;
33780;SDS011;20097;50.832;19.100;2023-08-07T14:07:11;6.72;;;2.42;;
33780;SDS011;20097;50.832;19.100;2023-08-07T14:12:16;2.20;;;1.80;;
33780;SDS011;20097;50.832;19.100;2023-08-07T14:22:26;3.23;;;1.60;;
33780;SDS011;20097;50.832;19.100;2023-08-07T14:27:30;2.47;;;1.38;;
33780;SDS011;20097;50.832;19.100;2023-08-07T14:32:36;4.03;;;1.83;;
33780;SDS011;20097;50.832;19.100;2023-08-07T14:37:41;10.98;;;2.13;;
33780;SDS011;20097;50.832;19.100;2023-08-07T14:42:46;1.50;;;1.40;;
33780;SDS011;20097;50.832;19.100;2023-08-07T14:47:50;1.30;;;1.20;;
33780;SDS011;20097;50.832;19.100;2023-08-07T14:53:01;2.88;;;1.48;;
33780;SDS011;20097;50.832;19.100;2023-08-07T14:58:05;1.88;;;1.55;;
33780;SDS011;20097;50.832;19.100;2023-08-07T15:03:10;4.20;;;1.55;;
33780;SDS011;20097;50.832;19.100;2023-08-07T15:08:15;2.33;;;1.42;;
33780;SDS011;20097;50.832;19.100;2023-08-07T15:13:20;2.13;;;1.50;;
33780;SDS011;20097;50.832;19.100;2023-08-07T15:18:24;2.08;;;1.70;;
33780;SDS011;20097;50.832;19.100;2023-08-07T15:23:30;2.45;;;1.23;;
33780;SDS011;20097;50.832;19.100;2023-08-07T15:28:35;2.30;;;1.83;;
33780;SDS011;20097;50.832;19.100;2023-08-07T15:38:46;1.55;;;1.33;;
33780;SDS011;20097;50.832;19.100;2023-08-07T15:43:50;2.80;;;1.77;;
33780;SDS011;20097;50.832;19.100;2023-08-07T15:48:54;3.88;;;2.25;;
33780;SDS011;20097;50.832;19.100;2023-08-07T15:54:00;4.15;;;1.80;;
33780;SDS011;20097;50.832;19.100;2023-08-07T15:59:06;2.40;;;1.80;;
33780;SDS011;20097;50.832;19.100;2023-08-07T16:04:10;6.15;;;1.88;;
33780;SDS011;20097;50.832;19.100;2023-08-07T16:09:16;3.95;;;2.20;;
33780;SDS011;20097;50.832;19.100;2023-08-07T16:14:20;3.20;;;2.10;;
33780;SDS011;20097;50.832;19.100;2023-08-07T16:19:44;4.32;;;1.80;;
33780;SDS011;20097;50.832;19.100;2023-08-07T16:25:09;2.40;;;1.83;;
33780;SDS011;20097;50.832;19.100;2023-08-07T16:30:13;2.20;;;1.73;;
33780;SDS011;20097;50.832;19.100;2023-08-07T16:35:37;3.95;;;1.70;;
33780;SDS011;20097;50.832;19.100;2023-08-07T16:40:42;2.85;;;1.95;;
33780;SDS011;20097;50.832;19.100;2023-08-07T16:45:47;2.45;;;1.73;;
33780;SDS011;20097;50.832;19.100;2023-08-07T16:50:51;3.72;;;2.20;;
33780;SDS011;20097;50.832;19.100;2023-08-07T16:56:16;2.47;;;2.00;;
33780;SDS011;20097;50.832;19.100;2023-08-07T17:01:21;6.22;;;2.13;;
33780;SDS011;20097;50.832;19.100;2023-08-07T17:06:25;2.60;;;1.85;;
33780;SDS011;20097;50.832;19.100;2023-08-07T17:11:31;2.92;;;2.08;;
33780;SDS011;20097;50.832;19.100;2023-08-07T17:16:37;3.97;;;2.15;;
33780;SDS011;20097;50.832;19.100;2023-08-07T17:21:42;4.38;;;2.05;;
33780;SDS011;20097;50.832;19.100;2023-08-07T17:26:47;3.35;;;1.98;;
33780;SDS011;20097;50.832;19.100;2023-08-07T17:31:52;3.70;;;2.13;;
33780;SDS011;20097;50.832;19.100;2023-08-07T17:37:00;3.25;;;2.38;;
33780;SDS011;20097;50.832;19.100;2023-08-07T17:42:06;3.88;;;2.05;;
33780;SDS011;20097;50.832;19.100;2023-08-07T17:47:11;3.72;;;2.22;;
33780;SDS011;20097;50.832;19.100;2023-08-07T17:52:16;2.90;;;2.47;;
33780;SDS011;20097;50.832;19.100;2023-08-07T17:57:22;8.10;;;2.78;;
33780;SDS011;20097;50.832;19.100;2023-08-07T18:02:28;5.10;;;2.15;;
33780;SDS011;20097;50.832;19.100;2023-08-07T18:07:32;3.72;;;2.08;;
33780;SDS011;20097;50.832;19.100;2023-08-07T18:12:38;2.80;;;2.40;;
33780;SDS011;20097;50.832;19.100;2023-08-07T18:17:43;2.90;;;2.42;;
33780;SDS011;20097;50.832;19.100;2023-08-07T18:22:47;3.30;;;2.40;;
33780;SDS011;20097;50.832;19.100;2023-08-07T18:27:52;2.92;;;2.28;;
33780;SDS011;20097;50.832;19.100;2023-08-07T18:32:57;4.97;;;3.35;;
33780;SDS011;20097;50.832;19.100;2023-08-07T18:38:01;3.10;;;2.40;;
33780;SDS011;20097;50.832;19.100;2023-08-07T18:43:07;3.72;;;2.22;;
33780;SDS011;20097;50.832;19.100;2023-08-07T18:48:11;3.08;;;2.10;;
33780;SDS011;20097;50.832;19.100;2023-08-07T18:53:16;4.03;;;2.50;;
33780;SDS011;20097;50.832;19.100;2023-08-07T19:03:26;3.60;;;2.60;;
33780;SDS011;20097;50.832;19.100;2023-08-07T19:08:32;3.58;;;2.15;;
33780;SDS011;20097;50.832;19.100;2023-08-07T19:13:38;9.18;;;3.05;;
33780;SDS011;20097;50.832;19.100;2023-08-07T19:18:43;4.25;;;2.70;;
33780;SDS011;20097;50.832;19.100;2023-08-07T19:23:47;5.82;;;3.03;;
33780;SDS011;20097;50.832;19.100;2023-08-07T19:28:53;3.47;;;2.55;;
33780;SDS011;20097;50.832;19.100;2023-08-07T19:33:59;4.45;;;2.92;;
33780;SDS011;20097;50.832;19.100;2023-08-07T19:39:03;4.07;;;2.83;;
33780;SDS011;20097;50.832;19.100;2023-08-07T19:44:08;4.05;;;2.67;;
33780;SDS011;20097;50.832;19.100;2023-08-07T19:49:13;3.70;;;2.75;;
33780;SDS011;20097;50.832;19.100;2023-08-07T19:54:17;4.33;;;2.87;;
33780;SDS011;20097;50.832;19.100;2023-08-07T20:04:28;4.35;;;2.55;;
33780;SDS011;20097;50.832;19.100;2023-08-07T20:09:33;3.83;;;2.42;;
33780;SDS011;20097;50.832;19.100;2023-08-07T20:14:41;3.72;;;2.40;;
33780;SDS011;20097;50.832;19.100;2023-08-07T20:19:46;4.20;;;2.75;;
33780;SDS011;20097;50.832;19.100;2023-08-07T20:24:51;4.65;;;3.42;;
33780;SDS011;20097;50.832;19.100;2023-08-07T20:29:57;5.00;;;2.20;;
33780;SDS011;20097;50.832;19.100;2023-08-07T20:35:01;2.13;;;1.90;;
33780;SDS011;20097;50.832;19.100;2023-08-07T20:40:08;1.98;;;1.70;;
33780;SDS011;20097;50.832;19.100;2023-08-07T20:45:16;1.83;;;1.45;;
33780;SDS011;20097;50.832;19.100;2023-08-07T20:50:20;2.53;;;1.58;;
33780;SDS011;20097;50.832;19.100;2023-08-07T20:55:25;1.48;;;1.15;;
33780;SDS011;20097;50.832;19.100;2023-08-07T21:00:32;3.25;;;1.30;;
33780;SDS011;20097;50.832;19.100;2023-08-07T21:05:36;1.60;;;1.10;;
33780;SDS011;20097;50.832;19.100;2023-08-07T21:10:41;2.00;;;1.23;;
33780;SDS011;20097;50.832;19.100;2023-08-07T21:15:46;1.95;;;1.05;;
33780;SDS011;20097;50.832;19.100;2023-08-07T21:20:51;2.95;;;0.85;;
33780;SDS011;20097;50.832;19.100;2023-08-07T21:25:56;0.93;;;0.90;;
33780;SDS011;20097;50.832;19.100;2023-08-07T21:31:01;1.55;;;1.08;;
33780;SDS011;20097;50.832;19.100;2023-08-07T21:36:06;3.80;;;1.75;;
33780;SDS011;20097;50.832;19.100;2023-08-07T21:41:11;1.30;;;0.97;;
33780;SDS011;20097;50.832;19.100;2023-08-07T21:46:17;4.03;;;1.50;;
33780;SDS011;20097;50.832;19.100;2023-08-07T21:51:25;3.25;;;1.75;;
33780;SDS011;20097;50.832;19.100;2023-08-07T21:56:31;2.08;;;0.82;;
33780;SDS011;20097;50.832;19.100;2023-08-07T22:01:37;4.10;;;0.90;;
33780;SDS011;20097;50.832;19.100;2023-08-07T22:06:42;3.75;;;1.52;;
33780;SDS011;20097;50.832;19.100;2023-08-07T22:11:46;0.95;;;0.85;;
33780;SDS011;20097;50.832;19.100;2023-08-07T22:16:52;2.20;;;0.93;;
33780;SDS011;20097;50.832;19.100;2023-08-07T22:21:56;2.08;;;0.82;;
33780;SDS011;20097;50.832;19.100;2023-08-07T22:27:01;2.25;;;1.15;;
33780;SDS011;20097;50.832;19.100;2023-08-07T22:32:09;2.05;;;1.10;;
33780;SDS011;20097;50.832;19.100;2023-08-07T22:37:14;2.88;;;0.90;;
33780;SDS011;20097;50.832;19.100;2023-08-07T22:42:19;2.35;;;0.90;;
33780;SDS011;20097;50.832;19.100;2023-08-07T22:47:25;2.10;;;1.03;;
33780;SDS011;20097;50.832;19.100;2023-08-07T22:52:29;2.17;;;1.25;;
33780;SDS011;20097;50.832;19.100;2023-08-07T23:02:40;4.75;;;1.20;;
33780;SDS011;20097;50.832;19.100;2023-08-07T23:07:44;3.40;;;0.95;;
33780;SDS011;20097;50.832;19.100;2023-08-07T23:12:49;2.42;;;1.23;;
33780;SDS011;20097;50.832;19.100;2023-08-07T23:17:56;2.80;;;0.90;;
33780;SDS011;20097;50.832;19.100;2023-08-07T23:23:00;2.70;;;1.17;;
33780;SDS011;20097;50.832;19.100;2023-08-07T23:28:04;4.73;;;1.00;;
33780;SDS011;20097;50.832;19.100;2023-08-07T23:33:10;4.47;;;1.00;;
33780;SDS011;20097;50.832;19.100;2023-08-07T23:38:14;3.90;;;1.40;;
33780;SDS011;20097;50.832;19.100;2023-08-07T23:43:19;2.13;;;1.15;;
33780;SDS011;20097;50.832;19.100;2023-08-07T23:48:24;2.72;;;1.17;;
33780;SDS011;20097;50.832;19.100;2023-08-07T23:53:29;3.15;;;1.60;;
33780;SDS011;20097;50.832;19.100;2023-08-07T23:58:34;3.88;;;1.25;;
